Sainte-Croix, Canada
Current Conditions -  °F | °C
As of 6:00 AM on Saturday 25 Oct 2014 (Local Time) from CYQB Reporting Station
Broken Clouds Broken Clouds  
Wind Chill: 32°   Ceiling: 19000
Heat Index: 32°   Visibility: 15mi
Dew Point: 28°   Wind: 0mph
Humidity: 87%   Direction: NA
Pressure: 29.71"   Gusts: NA
Location:  46.62°N, 71.73°W
Report Text: CYQB 251000Z 00000KT 15SM BKN190 M00/M02 A2971 RMK CI6 SLP064
Loading
Personal Weather Stations






























Interactive Weather Map New forecast layout! Learn more

10-Day Weather Forecast

Advertisements
Track Severe Weather on mobile